Time;durP1;ratioP1;P1;durP2;ratioP2;P2;SDS_P1;SDS_P2;PMS_P1;PMS_P2;Temp;Humidity;BMP_temperature;BMP_pressure;BME280_temperature;BME280_humidity;BME280_pressure;Samples;Min_cycle;Max_cycle;Signal;HPM_P1;HPM_P2
2022/10/25 00:01:19;;;;;;;10.05;5.68;;;23.40;62.70;;;;;;5044996;28;20036;-68
2022/10/25 00:03:45;;;;;;;8.70;6.15;;;23.30;62.70;;;;;;5054038;28;20140;-69
2022/10/25 00:06:12;;;;;;;12.18;5.80;;;23.20;62.70;;;;;;5037521;28;20502;-68
2022/10/25 00:08:39;;;;;;;10.65;5.40;;;23.20;62.80;;;;;;5038344;28;20028;-68
2022/10/25 00:11:17;;;;;;;11.32;5.85;;;23.20;62.80;;;;;;5042558;28;20376;-68
2022/10/25 00:13:43;;;;;;;9.95;6.25;;;23.10;62.80;;;;;;5037185;28;20033;-68
2022/10/25 00:16:18;;;;;;;10.82;6.03;;;23.20;62.70;;;;;;5042999;28;20033;-68
2022/10/25 00:18:44;;;;;;;10.98;6.03;;;23.10;62.80;;;;;;5052794;28;20064;-68
2022/10/25 00:21:10;;;;;;;11.32;6.22;;;23.00;62.80;;;;;;5053811;28;20029;-68
2022/10/25 00:23:36;;;;;;;10.07;6.28;;;23.10;62.90;;;;;;5035845;28;20121;-67
2022/10/25 00:26:05;;;;;;;8.55;5.60;;;23.10;62.90;;;;;;5031790;28;20549;-68
2022/10/25 00:28:31;;;;;;;9.15;6.15;;;23.10;62.90;;;;;;5037592;28;20037;-68
2022/10/25 00:31:08;;;;;;;10.98;6.25;;;23.10;62.90;;;;;;5043348;28;20025;-68
2022/10/25 00:33:36;;;;;;;11.98;6.32;;;23.20;62.70;;;;;;5038358;28;20386;-68
2022/10/25 00:36:06;;;;;;;12.88;6.70;;;23.10;62.60;;;;;;5033103;28;20390;-68
2022/10/25 00:38:32;;;;;;;8.50;6.05;;;23.20;62.70;;;;;;5033435;28;20030;-67
2022/10/25 00:40:59;;;;;;;11.65;5.68;;;23.10;62.70;;;;;;5031827;28;20045;-69
2022/10/25 00:43:32;;;;;;;10.00;5.75;;;23.10;62.70;;;;;;5035394;28;20652;-68
2022/10/25 00:45:58;;;;;;;;;;;23.00;62.60;;;;;;5036249;28;20050;-67
2022/10/25 00:48:25;;;;;;;8.98;5.03;;;23.20;62.70;;;;;;5050484;28;19909;-68
2022/10/25 00:50:53;;;;;;;9.85;5.90;;;23.10;62.70;;;;;;5033303;28;20091;-67
2022/10/25 00:53:24;;;;;;;9.38;6.15;;;23.10;62.60;;;;;;5033473;28;20113;-68
2022/10/25 00:56:02;;;;;;;9.05;6.13;;;23.20;62.60;;;;;;5029455;28;20029;-68
2022/10/25 00:58:32;;;;;;;12.10;6.03;;;23.20;62.50;;;;;;5031949;28;20030;-68
2022/10/25 01:00:59;;;;;;;7.68;5.10;;;23.20;62.50;;;;;;5034508;28;20041;-68
2022/10/25 01:03:25;;;;;;;8.90;5.53;;;23.20;62.60;;;;;;5052093;28;20091;-67
2022/10/25 01:05:52;;;;;;;10.13;5.93;;;23.20;62.60;;;;;;5044518;28;20087;-68
2022/10/25 01:08:20;;;;;;;6.78;5.35;;;23.20;62.50;;;;;;5033201;28;20040;-68
2022/10/25 01:10:47;;;;;;;11.45;5.57;;;23.20;62.40;;;;;;5030304;28;20128;-68
2022/10/25 01:13:13;;;;;;;11.05;5.78;;;23.20;62.40;;;;;;5031288;28;20406;-68
2022/10/25 01:15:51;;;;;;;9.38;5.70;;;23.10;62.50;;;;;;5034962;28;20064;-68
2022/10/25 01:18:31;;;;;;;7.57;5.15;;;23.10;62.60;;;;;;5051736;28;20029;-68
2022/10/25 01:21:21;;;;;;;10.02;6.15;;;23.10;62.60;;;;;;5052561;28;20060;-67
2022/10/25 01:24:31;;;;;;;12.40;5.82;;;23.10;62.60;;;;;;5046685;28;20038;-68
2022/10/25 01:27:34;;;;;;;9.30;6.28;;;23.10;62.70;;;;;;5026189;28;20076;-67
2022/10/25 01:30:15;;;;;;;11.75;5.75;;;23.00;62.60;;;;;;5021871;28;20095;-68
2022/10/25 01:33:11;;;;;;;9.93;6.07;;;23.10;62.80;;;;;;5007061;28;20041;-68
2022/10/25 01:35:59;;;;;;;9.93;6.05;;;23.00;62.50;;;;;;4913213;29;20050;-68
2022/10/25 01:38:57;;;;;;;9.18;6.00;;;23.00;62.50;;;;;;4913241;29;20040;-68
2022/10/25 01:41:56;;;;;;;10.65;6.03;;;22.90;62.50;;;;;;4912213;29;20093;-68
2022/10/25 01:44:34;;;;;;;12.20;6.22;;;23.00;62.60;;;;;;4924462;29;20063;-67
2022/10/25 01:47:14;;;;;;;7.20;5.60;;;23.00;62.50;;;;;;4925390;29;20146;-68
2022/10/25 01:49:56;;;;;;;9.48;5.30;;;23.00;62.50;;;;;;4932194;29;20056;-68
2022/10/25 01:52:23;;;;;;;6.77;5.67;;;23.00;62.50;;;;;;4918157;29;20054;-68
2022/10/25 01:54:50;;;;;;;9.02;6.05;;;23.00;62.50;;;;;;4927528;29;20028;-68
2022/10/25 01:57:28;;;;;;;9.88;5.80;;;23.00;62.50;;;;;;4901800;29;20032;-68
2022/10/25 02:00:18;;;;;;;8.02;5.72;;;23.10;62.60;;;;;;4919194;29;20059;-68
2022/10/25 02:02:54;;;;;;;7.40;5.18;;;22.90;62.50;;;;;;4951299;28;20173;-68
2022/10/25 02:05:26;;;;;;;10.20;5.50;;;23.00;62.70;;;;;;4969561;28;20170;-68
2022/10/25 02:07:58;;;;;;;10.45;5.65;;;23.00;62.60;;;;;;4953588;28;20039;-68
2022/10/25 02:10:36;;;;;;;15.80;6.78;;;22.90;62.60;;;;;;4969283;28;20046;-68
2022/10/25 02:13:15;;;;;;;8.43;5.88;;;22.90;62.60;;;;;;5008173;28;20117;-68
2022/10/25 02:15:58;;;;;;;8.23;5.72;;;23.00;62.50;;;;;;5044580;28;20049;-68
2022/10/25 02:18:29;;;;;;;11.40;5.88;;;23.00;62.60;;;;;;5012077;28;20041;-68
2022/10/25 02:20:57;;;;;;;11.10;5.70;;;23.00;62.50;;;;;;5036587;28;20478;-68
2022/10/25 02:23:25;;;;;;;7.72;5.95;;;23.00;62.40;;;;;;5039940;28;20132;-68
2022/10/25 02:25:53;;;;;;;10.35;5.97;;;23.00;62.40;;;;;;5028963;28;20068;-68
2022/10/25 02:28:23;;;;;;;11.00;5.97;;;23.00;62.40;;;;;;5028825;28;20053;-68
2022/10/25 02:30:51;;;;;;;8.55;6.00;;;23.10;62.40;;;;;;5031825;28;20076;-68
2022/10/25 02:33:17;;;;;;;7.47;5.72;;;23.00;62.30;;;;;;5046497;28;20565;-68
2022/10/25 02:35:43;;;;;;;10.32;6.18;;;23.00;62.30;;;;;;5047175;28;20033;-68
2022/10/25 02:38:09;;;;;;;12.35;6.03;;;23.10;62.40;;;;;;5027419;28;20108;-68
2022/10/25 02:40:35;;;;;;;8.65;6.25;;;23.00;62.40;;;;;;5021669;28;20040;-68
2022/10/25 02:43:01;;;;;;;11.80;6.10;;;22.90;62.40;;;;;;5039760;28;20056;-69
2022/10/25 02:45:27;;;;;;;12.70;5.57;;;23.00;62.40;;;;;;5041224;28;20109;-68
2022/10/25 02:47:53;;;;;;;10.43;5.85;;;22.90;62.50;;;;;;5064604;28;20032;-68
2022/10/25 02:50:19;;;;;;;11.70;6.57;;;22.90;62.50;;;;;;5038058;28;20033;-68
2022/10/25 02:52:45;;;;;;;10.30;6.00;;;23.10;62.60;;;;;;5026278;28;20037;-68
2022/10/25 02:55:11;;;;;;;10.13;6.35;;;22.90;62.50;;;;;;5010066;28;20487;-68
2022/10/25 02:57:37;;;;;;;10.50;5.93;;;22.80;62.30;;;;;;5027481;28;20057;-68
2022/10/25 03:00:06;;;;;;;7.55;5.75;;;22.80;62.40;;;;;;5036275;28;20048;-69
2022/10/25 03:02:32;;;;;;;10.60;7.30;;;22.90;62.50;;;;;;5026801;28;20057;-68
2022/10/25 03:04:58;;;;;;;10.07;6.55;;;22.70;62.50;;;;;;5029309;28;20111;-68
2022/10/25 03:07:24;;;;;;;13.93;7.75;;;22.90;62.70;;;;;;5030014;28;20425;-68
2022/10/25 03:09:50;;;;;;;7.80;5.50;;;22.90;62.60;;;;;;5041154;28;20036;-68
2022/10/25 03:12:16;;;;;;;9.82;6.68;;;22.90;62.60;;;;;;5027301;28;20473;-67
2022/10/25 03:14:42;;;;;;;11.38;6.63;;;22.80;62.40;;;;;;5032042;28;20025;-68
2022/10/25 03:17:08;;;;;;;7.60;6.43;;;22.90;62.50;;;;;;5032286;28;20104;-68
2022/10/25 03:19:34;;;;;;;11.52;7.07;;;22.90;62.50;;;;;;5046145;28;20125;-68
2022/10/25 03:22:00;;;;;;;8.60;6.30;;;22.90;62.40;;;;;;5049881;28;20029;-68
2022/10/25 03:24:26;;;;;;;9.63;6.55;;;22.90;62.30;;;;;;5033155;28;20073;-68
2022/10/25 03:26:52;;;;;;;12.30;7.32;;;22.90;62.50;;;;;;5036514;28;20029;-68
2022/10/25 03:29:18;;;;;;;9.25;6.90;;;22.90;62.40;;;;;;5032547;28;20030;-68
2022/10/25 03:31:44;;;;;;;8.30;5.70;;;22.90;62.20;;;;;;5044779;28;20033;-68
2022/10/25 03:34:10;;;;;;;11.10;6.60;;;23.00;62.10;;;;;;5034014;28;20131;-68
2022/10/25 03:36:36;;;;;;;10.27;6.30;;;23.00;61.90;;;;;;5047092;28;20060;-68
2022/10/25 03:39:02;;;;;;;7.72;6.35;;;22.90;62.00;;;;;;5032216;28;20057;-68
2022/10/25 03:41:28;;;;;;;14.73;6.18;;;22.90;61.90;;;;;;5032516;28;20028;-68
2022/10/25 03:43:54;;;;;;;9.00;6.15;;;23.10;62.20;;;;;;5036611;28;20036;-68
2022/10/25 03:46:20;;;;;;;8.00;5.90;;;23.00;62.10;;;;;;5047986;28;20022;-68
2022/10/25 03:48:45;;;;;;;11.40;6.95;;;23.00;61.90;;;;;;5042612;28;20037;-67
2022/10/25 03:51:11;;;;;;;13.57;7.85;;;23.00;61.80;;;;;;5031590;28;20038;-67
2022/10/25 03:53:37;;;;;;;10.75;6.78;;;23.10;61.80;;;;;;5034445;28;20029;-68
2022/10/25 03:56:04;;;;;;;9.88;6.75;;;23.00;61.80;;;;;;5031718;28;20040;-68
2022/10/25 03:58:30;;;;;;;11.48;6.20;;;23.00;61.80;;;;;;5022090;28;20086;-68
2022/10/25 04:00:56;;;;;;;9.25;6.40;;;23.00;61.70;;;;;;5048178;28;20040;-68
2022/10/25 04:03:22;;;;;;;9.32;6.47;;;23.00;61.70;;;;;;5034048;28;20053;-68
2022/10/25 04:05:48;;;;;;;9.32;7.10;;;23.00;61.70;;;;;;5034362;28;20462;-68
2022/10/25 04:08:14;;;;;;;8.27;7.00;;;23.00;61.50;;;;;;5033914;28;20391;-68
2022/10/25 04:10:40;;;;;;;8.13;6.10;;;23.00;61.50;;;;;;5049019;28;20032;-68
2022/10/25 04:13:06;;;;;;;10.32;6.03;;;23.00;61.60;;;;;;5031475;28;20079;-68
2022/10/25 04:15:32;;;;;;;10.60;6.55;;;23.00;61.50;;;;;;5050743;28;20024;-68
2022/10/25 04:17:58;;;;;;;12.20;7.15;;;23.00;61.40;;;;;;5046961;28;20033;-68
2022/10/25 04:20:24;;;;;;;9.60;7.85;;;23.00;61.40;;;;;;5052229;28;20115;-68
2022/10/25 04:22:55;;;;;;;12.93;7.78;;;23.00;61.20;;;;;;5032665;28;20124;-68
2022/10/25 04:25:23;;;;;;;12.10;7.57;;;22.90;61.40;;;;;;5031867;28;20041;-68
2022/10/25 04:27:49;;;;;;;11.38;7.65;;;22.90;61.90;;;;;;5032550;28;20518;-68
2022/10/25 04:30:15;;;;;;;12.73;7.68;;;22.80;62.30;;;;;;5041829;28;20111;-68
2022/10/25 04:32:41;;;;;;;13.30;8.30;;;22.80;62.50;;;;;;5042954;28;20029;-68
2022/10/25 04:35:07;;;;;;;15.35;7.53;;;22.60;62.50;;;;;;5045267;28;20117;-66
2022/10/25 04:37:33;;;;;;;11.00;8.05;;;22.70;62.70;;;;;;5039040;28;20480;-68
2022/10/25 04:39:59;;;;;;;11.07;7.63;;;22.60;62.80;;;;;;5033385;28;20061;-68
2022/10/25 04:42:25;;;;;;;10.80;7.60;;;22.70;62.70;;;;;;5031139;28;20046;-67
2022/10/25 04:44:51;;;;;;;13.55;6.60;;;22.70;62.60;;;;;;5048459;28;20060;-68
2022/10/25 04:47:17;;;;;;;11.80;7.00;;;22.60;62.50;;;;;;5036131;28;20033;-67
2022/10/25 04:49:43;;;;;;;10.15;6.75;;;22.60;62.50;;;;;;5033503;28;20029;-68
2022/10/25 04:52:09;;;;;;;11.13;7.20;;;22.50;62.60;;;;;;5032312;28;20489;-68
2022/10/25 04:54:35;;;;;;;13.95;7.80;;;22.70;62.60;;;;;;5033454;28;20051;-68
2022/10/25 04:57:01;;;;;;;12.88;6.97;;;22.60;62.50;;;;;;5032073;28;20033;-68
2022/10/25 04:59:27;;;;;;;8.98;7.38;;;22.60;62.50;;;;;;5045209;28;20033;-68
2022/10/25 05:01:53;;;;;;;8.60;6.50;;;22.60;62.40;;;;;;5041099;28;20543;-68
2022/10/25 05:04:19;;;;;;;12.90;7.40;;;22.70;62.50;;;;;;5049508;28;20060;-68
2022/10/25 05:06:45;;;;;;;10.57;7.40;;;22.70;62.50;;;;;;5052130;28;20029;-68
2022/10/25 05:09:10;;;;;;;8.88;6.65;;;22.60;62.50;;;;;;5067301;28;20039;-68
2022/10/25 05:11:36;;;;;;;8.98;5.70;;;22.60;62.30;;;;;;5036264;28;20037;-68
2022/10/25 05:14:02;;;;;;;12.02;7.32;;;22.80;62.20;;;;;;5042189;28;20123;-68
2022/10/25 05:16:28;;;;;;;12.48;7.20;;;22.80;61.80;;;;;;5047876;28;20126;-68
2022/10/25 05:18:54;;;;;;;11.85;7.10;;;22.70;61.70;;;;;;5046452;28;20526;-68
2022/10/25 05:21:24;;;;;;;10.48;7.03;;;22.70;61.80;;;;;;5045960;28;20466;-68
2022/10/25 05:23:50;;;;;;;9.60;7.07;;;22.70;61.90;;;;;;5031740;28;20033;-68
2022/10/25 05:26:20;;;;;;;11.43;6.43;;;22.70;61.90;;;;;;5028977;28;20092;-68
2022/10/25 05:28:48;;;;;;;11.00;6.55;;;22.70;62.10;;;;;;5030124;28;20675;-68
2022/10/25 05:31:17;;;;;;;15.57;7.70;;;22.60;62.10;;;;;;5031353;28;20038;-68
2022/10/25 05:33:44;;;;;;;13.10;7.63;;;22.60;62.10;;;;;;5034900;28;20043;-68
2022/10/25 05:36:11;;;;;;;13.55;7.93;;;22.50;62.20;;;;;;5032230;28;20040;-68
2022/10/25 05:38:37;;;;;;;13.80;8.55;;;22.60;62.20;;;;;;5033493;28;20102;-68
2022/10/25 05:41:03;;;;;;;14.77;8.48;;;22.60;62.30;;;;;;5051330;28;20040;-68
2022/10/25 05:43:29;;;;;;;11.80;7.63;;;22.40;62.20;;;;;;5027090;28;20461;-68
2022/10/25 05:46:05;;;;;;;11.57;7.85;;;22.60;62.30;;;;;;5043050;28;20083;-68
2022/10/25 05:48:32;;;;;;;12.45;7.38;;;22.40;62.20;;;;;;5044605;28;20040;-68
2022/10/25 05:51:28;;;;;;;9.82;7.82;;;22.40;62.10;;;;;;5052166;28;20044;-68
2022/10/25 05:53:56;;;;;;;17.88;7.93;;;22.40;62.20;;;;;;5009652;28;20072;-68
2022/10/25 05:56:25;;;;;;;16.27;7.95;;;22.40;62.20;;;;;;4998817;28;20499;-68
2022/10/25 05:58:52;;;;;;;12.95;8.45;;;22.50;62.30;;;;;;4981569;28;20054;-68
2022/10/25 06:01:22;;;;;;;15.52;8.00;;;22.50;62.30;;;;;;5003163;28;20056;-66
2022/10/25 06:03:53;;;;;;;14.07;8.30;;;22.40;61.70;;;;;;5002333;28;20065;-67
2022/10/25 06:06:20;;;;;;;9.23;6.75;;;22.50;61.80;;;;;;5009642;28;20057;-66
2022/10/25 06:08:46;;;;;;;11.13;7.82;;;22.40;61.80;;;;;;5009877;28;20519;-66
2022/10/25 06:11:15;;;;;;;16.58;7.53;;;22.50;62.10;;;;;;4989095;28;20120;-66
2022/10/25 06:13:41;;;;;;;11.82;7.63;;;22.60;62.10;;;;;;4986147;28;20077;-66
2022/10/25 06:16:10;;;;;;;11.25;7.35;;;22.50;61.90;;;;;;4986742;28;20038;-67
2022/10/25 06:18:39;;;;;;;15.98;6.95;;;22.60;62.00;;;;;;4986016;28;20137;-67
2022/10/25 06:21:13;;;;;;;14.15;8.10;;;22.60;62.20;;;;;;4974386;28;20114;-66
2022/10/25 06:23:39;;;;;;;12.52;7.63;;;22.60;62.30;;;;;;4977927;28;20539;-66
2022/10/25 06:26:10;;;;;;;13.20;7.75;;;22.70;62.70;;;;;;4989596;28;20062;-67
2022/10/25 06:28:36;;;;;;;14.95;7.15;;;22.70;63.00;;;;;;4990102;28;20076;-69
2022/10/25 06:31:17;;;;;;;10.25;6.95;;;22.60;64.30;;;;;;5030828;28;20454;-69
2022/10/25 06:33:44;;;;;;;13.25;7.32;;;22.70;64.40;;;;;;5051574;28;20079;-68
2022/10/25 06:36:21;;;;;;;10.50;6.85;;;22.80;63.40;;;;;;5044008;28;20040;-68
2022/10/25 06:38:48;;;;;;;13.07;7.38;;;22.80;63.30;;;;;;5043896;28;20032;-68
2022/10/25 06:41:17;;;;;;;15.95;7.85;;;22.80;62.80;;;;;;5039785;28;20494;-67
2022/10/25 06:43:43;;;;;;;12.65;6.53;;;22.90;65.50;;;;;;5047027;28;20108;-66
2022/10/25 06:46:31;;;;;;;15.20;6.28;;;23.00;59.50;;;;;;5040610;28;20057;-67
2022/10/25 06:48:59;;;;;;;35.17;16.80;;;23.20;59.00;;;;;;5039893;28;20044;-68
2022/10/25 06:51:27;;;;;;;8.70;5.72;;;23.40;61.60;;;;;;5040480;28;20082;-67
2022/10/25 06:53:58;;;;;;;10.63;7.72;;;23.40;57.20;;;;;;5032970;28;20034;-69
2022/10/25 06:56:25;;;;;;;13.10;7.45;;;23.40;60.60;;;;;;5034893;28;20392;-70
2022/10/25 06:58:51;;;;;;;10.85;7.50;;;23.50;60.20;;;;;;5047353;28;20021;-68
2022/10/25 07:01:20;;;;;;;17.25;7.85;;;23.50;61.20;;;;;;5044246;28;20025;-70
2022/10/25 07:03:46;;;;;;;15.73;7.85;;;23.50;61.00;;;;;;5017654;28;20089;-69
2022/10/25 07:06:17;;;;;;;21.20;7.93;;;23.30;61.00;;;;;;5039482;28;20049;-71
2022/10/25 07:08:45;;;;;;;12.27;8.27;;;23.30;62.00;;;;;;5006144;28;20076;-68
2022/10/25 07:11:19;;;;;;;11.57;9.10;;;23.20;60.40;;;;;;5006252;28;20042;-71
2022/10/25 07:13:45;;;;;;;11.90;8.18;;;23.20;62.10;;;;;;5006007;28;20104;-70
2022/10/25 07:16:14;;;;;;;21.98;9.60;;;23.20;59.90;;;;;;4988351;28;20033;-69
2022/10/25 07:18:40;;;;;;;16.83;11.00;;;23.20;61.40;;;;;;5006578;28;20061;-69
2022/10/25 07:21:20;;;;;;;18.42;11.88;;;23.30;63.10;;;;;;5008358;28;20089;-69
2022/10/25 07:23:47;;;;;;;17.20;11.80;;;23.20;62.50;;;;;;5007642;28;20157;-70
2022/10/25 07:26:20;;;;;;;42.05;19.65;;;23.30;63.20;;;;;;5006213;28;20053;-69
2022/10/25 07:28:48;;;;;;;39.47;20.10;;;23.30;64.30;;;;;;5005838;28;20038;-67
2022/10/25 07:31:18;;;;;;;32.70;17.08;;;23.40;64.70;;;;;;5006281;28;20128;-68
2022/10/25 07:33:44;;;;;;;41.53;22.30;;;23.50;64.70;;;;;;5006665;28;20053;-69
2022/10/25 07:36:10;;;;;;;35.53;17.60;;;23.40;64.40;;;;;;5005123;28;20581;-68
2022/10/25 07:38:36;;;;;;;38.83;19.02;;;23.40;64.60;;;;;;5009238;28;20194;-70
2022/10/25 07:41:02;;;;;;;31.95;18.15;;;23.40;64.50;;;;;;5037989;28;20041;-69
2022/10/25 07:43:28;;;;;;;28.73;14.93;;;23.50;64.70;;;;;;5050209;28;20604;-68
2022/10/25 07:45:54;;;;;;;29.27;15.73;;;23.50;64.60;;;;;;5063300;28;20044;-70
2022/10/25 07:48:21;;;;;;;34.05;15.15;;;23.50;64.60;;;;;;5068167;28;20720;-70
2022/10/25 07:50:47;;;;;;;31.70;16.25;;;23.50;64.40;;;;;;5063590;28;20041;-70
2022/10/25 07:53:14;;;;;;;56.05;22.02;;;23.50;63.80;;;;;;5030405;28;20049;-68
2022/10/25 07:55:39;;;;;;;71.38;27.00;;;23.70;63.90;;;;;;5032133;28;20065;-68
2022/10/25 07:58:08;;;;;;;28.73;15.25;;;23.60;63.70;;;;;;5030517;28;20092;-68
2022/10/25 08:00:35;;;;;;;27.88;14.07;;;23.50;64.00;;;;;;5048078;28;20074;-69
2022/10/25 08:03:02;;;;;;;33.33;17.50;;;23.60;63.90;;;;;;5034217;28;20071;-68
2022/10/25 08:05:28;;;;;;;33.47;17.13;;;23.70;63.90;;;;;;5050410;28;20041;-69
2022/10/25 08:07:54;;;;;;;34.03;16.75;;;23.70;63.60;;;;;;5032538;28;20613;-70
2022/10/25 08:10:20;;;;;;;25.02;11.85;;;23.80;63.40;;;;;;5054171;28;20158;-69
2022/10/25 08:12:47;;;;;;;49.42;16.05;;;23.70;63.00;;;;;;5065694;28;20167;-68
2022/10/25 08:15:14;;;;;;;33.30;14.80;;;23.70;64.90;;;;;;5033329;28;20061;-70
2022/10/25 08:17:40;;;;;;;37.33;14.18;;;23.90;64.90;;;;;;5047280;28;20601;-70
2022/10/25 08:20:06;;;;;;;48.03;15.82;;;24.10;65.30;;;;;;5050618;28;20056;-70
2022/10/25 08:22:32;;;;;;;29.30;9.82;;;24.20;65.30;;;;;;5045711;28;20071;-69
2022/10/25 08:24:59;;;;;;;18.35;8.43;;;24.40;63.10;;;;;;5032092;28;20057;-71
2022/10/25 08:27:26;;;;;;;18.55;10.50;;;24.30;62.40;;;;;;5036273;28;20104;-70
2022/10/25 08:29:52;;;;;;;25.73;13.82;;;24.20;61.60;;;;;;5048010;28;20086;-70
2022/10/25 08:32:17;;;;;;;11.00;6.70;;;24.10;60.90;;;;;;5047835;28;20087;-71
2022/10/25 08:34:44;;;;;;;11.23;7.38;;;24.20;60.20;;;;;;5044265;28;20415;-71
2022/10/25 08:37:11;;;;;;;25.88;11.45;;;24.30;61.60;;;;;;5053610;28;20060;-70
2022/10/25 08:39:37;;;;;;;52.58;16.90;;;24.50;62.60;;;;;;5053616;28;20041;-70
2022/10/25 08:42:04;;;;;;;14.73;8.82;;;24.80;63.10;;;;;;5046782;28;20025;-71
2022/10/25 08:44:43;;;;;;;36.50;13.80;;;24.80;61.00;;;;;;5039669;28;20041;-69
2022/10/25 08:47:23;;;;;;;38.03;10.52;;;24.80;60.00;;;;;;5050983;28;20032;-70
2022/10/25 08:50:04;;;;;;;20.40;12.55;;;24.80;59.50;;;;;;5052127;28;20112;-70
2022/10/25 08:52:52;;;;;;;16.15;10.35;;;24.70;56.10;;;;;;5044540;28;20030;-69
2022/10/25 08:55:43;;;;;;;22.65;10.48;;;24.60;57.90;;;;;;5041216;28;20031;-69
2022/10/25 08:58:25;;;;;;;20.98;11.63;;;24.60;55.60;;;;;;5034455;28;20079;-70
2022/10/25 09:00:51;;;;;;;20.05;10.75;;;24.70;60.90;;;;;;5036317;28;20021;-72
2022/10/25 09:03:24;;;;;;;15.57;10.30;;;24.50;60.80;;;;;;5039641;28;20064;-69
2022/10/25 09:06:06;;;;;;;17.60;9.55;;;24.50;62.30;;;;;;5019985;28;20207;-68
2022/10/25 09:09:04;;;;;;;21.83;10.02;;;24.60;62.70;;;;;;5026132;28;20074;-67
2022/10/25 09:11:47;;;;;;;17.70;10.63;;;24.60;62.40;;;;;;5027943;28;20040;-68
2022/10/25 09:14:25;;;;;;;16.42;9.68;;;24.70;62.10;;;;;;5014963;28;20559;-69
2022/10/25 09:16:51;;;;;;;20.17;11.02;;;24.50;61.90;;;;;;5028507;28;20478;-70
2022/10/25 09:19:21;;;;;;;20.15;9.52;;;24.50;61.60;;;;;;5025907;28;20047;-69
2022/10/25 09:21:56;;;;;;;21.52;10.15;;;24.60;60.90;;;;;;5023619;28;20043;-68
2022/10/25 09:24:53;;;;;;;21.83;8.80;;;24.70;60.90;;;;;;5026314;28;20140;-69
2022/10/25 09:27:32;;;;;;;16.45;9.15;;;24.60;60.20;;;;;;5016099;28;20139;-68
2022/10/25 09:30:00;;;;;;;17.80;9.32;;;24.70;60.70;;;;;;5026089;28;20116;-67
2022/10/25 09:32:44;;;;;;;18.50;9.23;;;24.60;60.50;;;;;;5014601;28;20038;-68
2022/10/25 09:35:21;;;;;;;14.48;9.60;;;24.70;60.50;;;;;;5027075;28;20116;-70
2022/10/25 09:37:51;;;;;;;16.85;8.85;;;24.70;60.40;;;;;;5026882;28;20040;-69
2022/10/25 09:40:24;;;;;;;14.93;9.05;;;24.70;60.50;;;;;;5026265;28;20037;-70
2022/10/25 09:42:55;;;;;;;18.80;9.32;;;24.80;60.20;;;;;;5008949;28;20819;-69
2022/10/25 09:45:30;;;;;;;14.93;8.98;;;24.60;60.20;;;;;;5025021;28;20079;-69
2022/10/25 09:48:20;;;;;;;13.95;8.05;;;24.70;60.30;;;;;;5020939;28;20076;-71
2022/10/25 09:51:09;;;;;;;16.20;7.93;;;24.50;60.50;;;;;;5021880;28;20045;-67
2022/10/25 09:53:40;;;;;;;15.07;9.07;;;24.60;60.40;;;;;;5026250;28;20037;-68
2022/10/25 09:56:06;;;;;;;11.25;8.40;;;24.60;60.30;;;;;;5027254;28;20049;-69
2022/10/25 09:58:38;;;;;;;14.82;7.95;;;24.70;60.50;;;;;;5028835;28;20025;-68
2022/10/25 10:01:10;;;;;;;12.40;7.28;;;24.60;60.10;;;;;;5028456;28;20401;-68
2022/10/25 10:03:36;;;;;;;37.08;14.27;;;24.60;60.60;;;;;;5001013;28;20050;-72
2022/10/25 10:06:22;;;;;;;23.55;10.50;;;24.60;60.10;;;;;;5026755;28;20071;-69
2022/10/25 10:08:56;;;;;;;16.70;8.18;;;24.50;60.80;;;;;;5032817;28;20117;-70
2022/10/25 10:11:24;;;;;;;14.98;6.55;;;24.60;60.80;;;;;;5017213;28;20136;-67
2022/10/25 10:14:11;;;;;;;14.45;7.53;;;24.50;61.00;;;;;;5024477;28;20049;-69
2022/10/25 10:16:52;;;;;;;17.23;7.05;;;24.60;61.00;;;;;;5038569;28;20027;-68
2022/10/25 10:19:24;;;;;;;20.98;7.57;;;24.60;61.20;;;;;;5027899;28;20482;-67
2022/10/25 10:21:54;;;;;;;14.27;7.55;;;24.70;61.40;;;;;;5030213;28;20054;-67
2022/10/25 10:24:35;;;;;;;13.88;6.43;;;24.50;61.40;;;;;;5046840;28;20041;-67
2022/10/25 10:27:09;;;;;;;13.25;6.47;;;24.70;61.50;;;;;;5039349;28;20021;-67
2022/10/25 10:29:37;;;;;;;15.02;7.13;;;24.70;61.60;;;;;;5037400;28;20598;-68
2022/10/25 10:32:20;;;;;;;12.75;6.70;;;24.60;61.60;;;;;;5037001;28;20041;-68
2022/10/25 10:34:52;;;;;;;18.55;6.68;;;24.50;61.70;;;;;;5040090;28;20136;-68
2022/10/25 10:37:26;;;;;;;13.07;6.60;;;24.60;61.70;;;;;;5012409;28;20625;-68
2022/10/25 10:39:56;;;;;;;18.70;7.00;;;24.60;61.70;;;;;;5039461;28;20463;-68
2022/10/25 10:42:25;;;;;;;11.30;7.18;;;24.50;61.70;;;;;;5030356;28;20433;-68
2022/10/25 10:45:12;;;;;;;13.20;7.88;;;24.50;61.70;;;;;;5030489;28;20038;-69
2022/10/25 10:47:42;;;;;;;14.07;7.40;;;24.50;61.40;;;;;;5028750;28;20041;-69
2022/10/25 10:50:24;;;;;;;25.65;8.68;;;24.60;60.70;;;;;;5025474;28;20529;-68
2022/10/25 10:53:28;;;;;;;16.85;7.35;;;24.50;62.70;;;;;;5041333;28;20044;-68
2022/10/25 10:55:56;;;;;;;9.82;6.50;;;24.70;61.60;;;;;;5032318;28;20021;-68
2022/10/25 10:58:29;;;;;;;12.73;6.68;;;24.70;58.30;;;;;;5029892;28;20029;-68
2022/10/25 11:00:59;;;;;;;14.95;7.25;;;24.80;58.80;;;;;;5027978;28;20414;-68
2022/10/25 11:03:40;;;;;;;14.07;7.38;;;24.80;61.30;;;;;;5010333;28;20053;-67
2022/10/25 11:06:12;;;;;;;15.90;6.95;;;24.90;60.10;;;;;;5023723;28;20038;-66
2022/10/25 11:08:40;;;;;;;13.90;6.38;;;25.00;63.40;;;;;;5044911;28;20037;-66
2022/10/25 11:11:15;;;;;;;16.33;6.25;;;25.20;74.50;;;;;;5028943;28;20422;-67
2022/10/25 11:13:53;;;;;;;12.25;6.95;;;25.60;74.80;;;;;;5030484;28;20045;-67
2022/10/25 11:16:57;;;;;;;19.63;8.32;;;25.70;70.00;;;;;;5024980;28;20038;-66
2022/10/25 11:19:48;;;;;;;20.63;8.18;;;25.70;62.00;;;;;;5026292;28;20470;-69
2022/10/25 11:22:20;;;;;;;20.23;8.52;;;25.70;65.20;;;;;;5026641;28;20065;-69
2022/10/25 11:25:11;;;;;;;15.07;7.85;;;25.80;64.60;;;;;;5024057;28;20525;-70
2022/10/25 11:27:49;;;;;;;13.95;8.20;;;26.10;64.20;;;;;;5028480;28;20411;-69
2022/10/25 11:30:23;;;;;;;16.95;8.35;;;26.10;62.70;;;;;;5032150;28;20030;-69
2022/10/25 11:32:56;;;;;;;13.15;7.35;;;26.20;59.50;;;;;;5029579;28;20050;-69
2022/10/25 11:35:43;;;;;;;18.73;7.10;;;26.00;65.40;;;;;;5029821;28;20026;-73
2022/10/25 11:38:36;;;;;;;15.57;8.15;;;26.00;63.90;;;;;;5029144;28;20036;-71
2022/10/25 11:41:20;;;;;;;12.93;7.82;;;26.10;70.70;;;;;;5029165;28;20034;-70
2022/10/25 11:43:52;;;;;;;16.80;7.18;;;26.00;75.90;;;;;;5033279;28;20467;-70
2022/10/25 11:46:47;;;;;;;12.75;7.95;;;26.10;78.50;;;;;;5030901;28;20046;-69
2022/10/25 11:49:13;;;;;;;15.85;8.10;;;26.20;73.20;;;;;;5030062;28;20048;-66
2022/10/25 11:52:00;;;;;;;13.55;7.10;;;26.20;74.70;;;;;;5029779;28;20030;-67
2022/10/25 11:54:35;;;;;;;12.90;7.90;;;26.30;74.30;;;;;;5031705;28;20041;-72
2022/10/25 11:57:32;;;;;;;14.20;7.53;;;26.20;72.00;;;;;;5032107;28;20037;-69
2022/10/25 12:00:13;;;;;;;14.20;7.78;;;26.10;70.00;;;;;;5028986;28;20080;-70
2022/10/25 12:03:06;;;;;;;14.32;6.18;;;26.00;69.30;;;;;;5033055;28;20108;-66
2022/10/25 12:05:40;;;;;;;11.55;7.40;;;26.20;65.00;;;;;;5031752;28;20054;-66
2022/10/25 12:08:34;;;;;;;12.10;6.88;;;26.10;63.70;;;;;;5025430;28;20128;-70
2022/10/25 12:11:04;;;;;;;17.38;7.88;;;26.00;63.30;;;;;;5028103;28;20040;-70
2022/10/25 12:13:53;;;;;;;14.63;8.68;;;26.20;63.00;;;;;;5031805;28;20112;-69
2022/10/25 12:16:22;;;;;;;19.30;9.23;;;25.90;62.40;;;;;;5026032;28;20729;-70
2022/10/25 12:19:04;;;;;;;17.17;7.35;;;26.00;62.50;;;;;;5014791;28;20032;-69
2022/10/25 12:21:41;;;;;;;12.50;7.40;;;26.00;62.80;;;;;;5031850;28;20040;-69
2022/10/25 12:24:15;;;;;;;13.57;8.20;;;26.00;62.70;;;;;;5031939;28;20112;-67
2022/10/25 12:26:43;;;;;;;15.98;7.75;;;26.00;62.90;;;;;;5049380;28;20367;-68
2022/10/25 12:29:37;;;;;;;16.88;8.30;;;25.90;62.50;;;;;;5030389;28;20047;-68
2022/10/25 12:32:19;;;;;;;12.20;8.18;;;25.80;62.70;;;;;;5032348;28;20037;-67
2022/10/25 12:34:49;;;;;;;16.75;7.20;;;25.90;62.80;;;;;;5033519;28;20057;-66
2022/10/25 12:37:42;;;;;;;15.25;8.63;;;25.70;62.90;;;;;;5034353;28;20033;-67
2022/10/25 12:40:20;;;;;;;23.33;11.53;;;25.80;62.80;;;;;;5035025;28;20075;-65
2022/10/25 12:42:48;;;;;;;22.65;12.80;;;25.80;62.70;;;;;;5031833;28;20029;-66
2022/10/25 12:45:23;;;;;;;16.23;10.95;;;25.80;62.70;;;;;;5031759;28;20068;-67
2022/10/25 12:48:17;;;;;;;18.73;8.95;;;25.70;62.70;;;;;;5036400;28;20020;-67
2022/10/25 12:50:51;;;;;;;15.35;8.82;;;25.70;62.70;;;;;;5043959;28;20028;-68
2022/10/25 12:53:45;;;;;;;22.08;9.80;;;25.70;62.80;;;;;;5038948;28;20142;-67
2022/10/25 12:56:14;;;;;;;10.18;5.22;;;25.80;62.50;;;;;;5035961;28;20061;-67
2022/10/25 12:59:05;;;;;;;10.20;5.72;;;25.70;60.60;;;;;;5029929;28;20033;-67
2022/10/25 13:01:51;;;;;;;8.80;6.03;;;26.00;60.60;;;;;;5046222;28;20061;-66
2022/10/25 13:04:20;;;;;;;21.00;9.57;;;26.20;60.80;;;;;;5027895;28;20104;-68